createdAt,value
2019-05-16T00:01:40.757Z,44.90
2019-05-16T00:04:10.794Z,44.90
2019-05-16T00:06:40.890Z,45.00
2019-05-16T00:09:10.988Z,45.10
2019-05-16T00:11:41.112Z,45.20
2019-05-16T00:14:11.740Z,45.40
2019-05-16T00:16:41.786Z,45.60
2019-05-16T00:19:11.830Z,45.40
2019-05-16T00:21:41.885Z,45.30
2019-05-16T00:24:12.128Z,45.50
2019-05-16T00:26:42.256Z,45.50
2019-05-16T00:29:12.282Z,45.60
2019-05-16T00:31:42.398Z,45.80
2019-05-16T00:34:13.060Z,45.90
2019-05-16T00:36:43.182Z,46.00
2019-05-16T00:39:13.230Z,46.10
2019-05-16T00:41:43.456Z,46.20
2019-05-16T00:44:13.599Z,46.20
2019-05-16T00:46:43.710Z,46.30
2019-05-16T00:49:13.759Z,46.40
2019-05-16T00:51:43.762Z,46.60
2019-05-16T00:54:13.830Z,46.80
2019-05-16T00:56:45.150Z,46.80
2019-05-16T00:59:18.350Z,47.00
2019-05-16T01:01:49.970Z,47.00
2019-05-16T01:04:20.526Z,47.00
2019-05-16T01:06:50.561Z,47.10
2019-05-16T01:09:20.680Z,47.10
2019-05-16T01:11:51.112Z,47.10
2019-05-16T01:14:21.138Z,47.20
2019-05-16T01:16:51.566Z,47.40
2019-05-16T01:19:21.612Z,46.70
2019-05-16T01:21:51.728Z,46.70
2019-05-16T01:24:21.776Z,46.80
2019-05-16T01:26:51.822Z,46.80
2019-05-16T01:29:21.835Z,46.90
2019-05-16T01:31:52.168Z,47.00
2019-05-16T01:34:22.196Z,47.10
2019-05-16T01:36:52.526Z,47.30
2019-05-16T01:39:22.636Z,47.40
2019-05-16T01:41:53.048Z,47.40
2019-05-16T01:44:23.066Z,47.40
2019-05-16T01:46:53.294Z,47.20
2019-05-16T01:49:23.328Z,47.50
2019-05-16T01:51:53.736Z,47.60
2019-05-16T01:54:23.854Z,47.20
2019-05-16T01:56:53.884Z,46.90
2019-05-16T01:59:23.922Z,47.00
2019-05-16T02:01:54.064Z,47.00
2019-05-16T02:04:24.173Z,46.80
2019-05-16T02:06:55.028Z,46.90
2019-05-16T02:09:27.899Z,47.00
2019-05-16T02:11:58.900Z,47.10
2019-05-16T02:14:29.384Z,47.00
2019-05-16T02:16:59.497Z,46.90
2019-05-16T02:19:29.538Z,47.00
2019-05-16T02:22:00.002Z,47.00
2019-05-16T02:24:30.025Z,47.10
2019-05-16T02:27:00.077Z,47.10
2019-05-16T02:29:30.151Z,47.20
2019-05-16T02:32:01.974Z,47.30
2019-05-16T02:34:32.405Z,47.50
2019-05-16T02:37:18.985Z,47.60
2019-05-16T02:39:34.728Z,47.60
2019-05-16T02:42:04.859Z,47.60
2019-05-16T02:44:34.903Z,47.40
2019-05-16T02:47:05.059Z,47.20
2019-05-16T02:49:35.094Z,47.00
2019-05-16T02:52:05.758Z,47.00
2019-05-16T02:54:35.861Z,46.90
2019-05-16T02:57:11.919Z,47.10
2019-05-16T02:59:42.016Z,47.00
2019-05-16T03:02:12.359Z,47.00
2019-05-16T03:04:44.369Z,47.30
2019-05-16T03:07:32.882Z,47.40
2019-05-16T03:09:46.741Z,47.80
2019-05-16T03:12:21.155Z,47.80
2019-05-16T03:14:54.653Z,47.80
2019-05-16T03:17:26.006Z,47.90
2019-05-16T03:20:01.429Z,47.90
2019-05-16T03:22:31.716Z,48.00
2019-05-16T03:25:03.026Z,48.00
2019-05-16T03:27:36.566Z,48.00
2019-05-16T03:30:06.900Z,47.90
2019-05-16T03:32:43.962Z,48.00
2019-05-16T03:35:15.799Z,48.00
2019-05-16T03:37:55.013Z,48.10
2019-05-16T03:40:16.486Z,48.10
2019-05-16T03:42:46.566Z,48.20
2019-05-16T03:45:16.619Z,48.30
2019-05-16T03:47:46.753Z,48.40
2019-05-16T03:50:17.311Z,48.50
2019-05-16T03:52:50.572Z,48.60
2019-05-16T03:55:21.316Z,48.60
2019-05-16T03:57:51.747Z,48.70
2019-05-16T04:00:36.763Z,48.70
2019-05-16T04:03:06.829Z,48.70
2019-05-16T04:05:37.027Z,48.80
2019-05-16T04:08:15.215Z,48.90
2019-05-16T04:10:40.930Z,49.00
2019-05-16T04:13:11.633Z,49.10
2019-05-16T04:15:46.017Z,49.00
2019-05-16T04:18:16.159Z,49.20
2019-05-16T04:21:00.915Z,49.20
2019-05-16T04:23:31.311Z,49.20
2019-05-16T04:26:01.899Z,49.30
2019-05-16T04:28:32.174Z,49.40
2019-05-16T04:31:02.485Z,49.50
2019-05-16T04:33:33.220Z,49.60
2019-05-16T04:36:03.526Z,49.60
2019-05-16T04:38:41.011Z,49.70
2019-05-16T04:41:06.118Z,49.80
2019-05-16T04:43:36.162Z,49.80
2019-05-16T04:46:06.198Z,49.80
2019-05-16T04:48:36.314Z,49.70
2019-05-16T04:51:06.361Z,49.90
2019-05-16T04:53:36.472Z,50.00
2019-05-16T04:56:06.514Z,50.10
2019-05-16T04:58:36.539Z,50.40
2019-05-16T05:01:06.608Z,50.40
2019-05-16T05:03:36.970Z,50.40
2019-05-16T05:06:07.106Z,50.40
2019-05-16T05:08:50.626Z,50.50
2019-05-16T05:11:10.704Z,50.40
2019-05-16T05:13:41.257Z,50.60
2019-05-16T05:16:11.823Z,50.60
2019-05-16T05:18:42.158Z,50.30
2019-05-16T05:21:12.296Z,49.80
2019-05-16T05:23:42.600Z,49.50
2019-05-16T05:26:12.693Z,49.60
2019-05-16T05:28:42.723Z,49.80
2019-05-16T05:31:13.195Z,49.90
2019-05-16T05:33:43.249Z,50.00
2019-05-16T05:36:13.696Z,50.30
2019-05-16T05:38:44.868Z,49.90
2019-05-16T05:41:14.906Z,49.70
2019-05-16T05:43:45.001Z,49.30
2019-05-16T05:46:15.122Z,49.50
2019-05-16T05:48:45.256Z,49.30
2019-05-16T05:51:15.463Z,49.20
2019-05-16T05:53:45.520Z,49.40
2019-05-16T05:56:15.640Z,49.10
2019-05-16T05:58:46.060Z,49.00
2019-05-16T06:01:16.619Z,49.10
2019-05-16T06:03:47.089Z,49.10
2019-05-16T06:06:17.129Z,49.00
2019-05-16T06:08:47.243Z,49.00
2019-05-16T06:11:17.288Z,49.00
2019-05-16T06:13:49.797Z,49.10
2019-05-16T06:16:20.492Z,49.10
2019-05-16T06:18:50.863Z,48.80
2019-05-16T06:21:21.870Z,48.70
2019-05-16T06:23:53.037Z,48.70
2019-05-16T06:26:23.171Z,48.70
2019-05-16T06:28:53.650Z,48.80
2019-05-16T06:31:24.219Z,48.30
2019-05-16T06:33:54.319Z,48.30
2019-05-16T06:36:24.421Z,48.20
2019-05-16T06:38:54.908Z,48.20
2019-05-16T06:41:25.029Z,48.30
2019-05-16T06:43:55.465Z,48.50
2019-05-16T06:46:25.895Z,49.00
2019-05-16T06:48:55.987Z,49.00
2019-05-16T06:51:26.080Z,48.90
2019-05-16T06:53:56.198Z,49.00
2019-05-16T06:56:26.444Z,48.60
2019-05-16T06:58:56.616Z,48.40
2019-05-16T07:01:29.630Z,48.60
2019-05-16T07:04:00.089Z,49.00
2019-05-16T07:06:51.873Z,49.20
2019-05-16T07:09:04.968Z,48.90
2019-05-16T07:11:35.108Z,48.90
2019-05-16T07:14:05.196Z,48.90
2019-05-16T07:16:37.261Z,48.60
2019-05-16T07:19:07.410Z,48.60
2019-05-16T07:21:39.725Z,48.40
2019-05-16T07:24:10.873Z,48.40
2019-05-16T07:26:41.207Z,48.40
2019-05-16T07:29:11.264Z,49.10
2019-05-16T07:31:41.322Z,49.90
2019-05-16T07:34:14.392Z,49.60
2019-05-16T07:36:43.158Z,49.60
2019-05-16T07:39:13.201Z,49.20
2019-05-16T07:41:43.477Z,49.10
2019-05-16T07:44:13.533Z,49.60
2019-05-16T07:46:44.667Z,49.00
2019-05-16T07:49:15.241Z,48.80
2019-05-16T07:51:45.689Z,48.80
2019-05-16T07:54:16.118Z,48.60
2019-05-16T07:56:46.173Z,48.90
2019-05-16T07:59:17.381Z,48.80
2019-05-16T08:01:47.436Z,48.80
2019-05-16T08:04:19.854Z,48.80
2019-05-16T08:06:50.246Z,49.00
2019-05-16T08:09:21.812Z,49.20
2019-05-16T08:11:51.924Z,48.90
2019-05-16T08:14:22.092Z,48.70
2019-05-16T08:16:53.340Z,49.00
2019-05-16T08:19:25.379Z,48.80
2019-05-16T08:21:55.490Z,48.90
2019-05-16T08:24:25.670Z,48.60
2019-05-16T08:26:56.050Z,48.60
2019-05-16T08:29:26.230Z,49.00
2019-05-16T08:31:56.320Z,49.30
2019-05-16T08:34:26.395Z,49.50
2019-05-16T08:36:56.465Z,49.50
2019-05-16T08:39:26.492Z,49.70
2019-05-16T08:42:04.272Z,49.70
2019-05-16T08:44:31.719Z,49.90
2019-05-16T08:49:32.923Z,49.30
2019-05-16T08:52:03.306Z,49.40
2019-05-16T08:54:33.345Z,49.90
2019-05-16T08:57:24.369Z,49.90
2019-05-16T08:59:36.337Z,49.60
2019-05-16T09:02:06.474Z,49.90
2019-05-16T09:04:36.598Z,49.90
2019-05-16T09:07:06.709Z,49.30
2019-05-16T09:09:44.477Z,49.60
2019-05-16T09:10:30.558Z,49.70
2019-05-16T09:12:08.608Z,49.40
2019-05-16T09:14:39.196Z,49.70
2019-05-16T09:17:09.440Z,49.60
2019-05-16T09:19:39.548Z,49.20
2019-05-16T09:22:10.037Z,49.10
2019-05-16T09:24:40.562Z,49.40
2019-05-16T09:27:17.763Z,49.60
2019-05-16T09:29:42.821Z,49.90
2019-05-16T09:32:17.965Z,49.70
2019-05-16T09:34:47.636Z,49.60
2019-05-16T09:37:18.039Z,49.20
2019-05-16T09:39:48.307Z,49.40
2019-05-16T09:42:18.650Z,49.40
2019-05-16T09:44:48.993Z,49.40
2019-05-16T09:47:19.038Z,49.70
2019-05-16T09:49:49.063Z,49.30
2019-05-16T09:52:19.273Z,49.60
2019-05-16T09:54:49.411Z,49.70
2019-05-16T09:57:19.547Z,49.70
2019-05-16T09:59:49.656Z,49.80
2019-05-16T10:02:19.743Z,50.40
2019-05-16T10:04:49.775Z,50.40
2019-05-16T10:07:19.913Z,50.40
2019-05-16T10:09:50.344Z,50.20
2019-05-16T10:12:20.809Z,49.60
2019-05-16T10:14:51.325Z,49.60
2019-05-16T10:17:22.911Z,49.80
2019-05-16T10:19:53.308Z,49.60
2019-05-16T10:22:27.118Z,49.30
2019-05-16T10:24:57.272Z,49.60
2019-05-16T10:27:27.618Z,49.30
2019-05-16T10:30:01.025Z,49.60
2019-05-16T10:32:29.587Z,49.50
2019-05-16T10:34:59.650Z,49.60
2019-05-16T10:37:29.728Z,49.40
2019-05-16T10:40:00.072Z,48.90
2019-05-16T10:42:30.626Z,49.20
2019-05-16T10:45:00.813Z,49.00
2019-05-16T10:47:31.475Z,48.60
2019-05-16T10:50:01.712Z,49.20
2019-05-16T10:52:31.862Z,49.20
2019-05-16T10:55:03.241Z,49.40
2019-05-16T10:57:33.759Z,49.20
2019-05-16T11:00:16.094Z,48.90
2019-05-16T11:02:38.571Z,48.80
2019-05-16T11:05:25.675Z,49.10
2019-05-16T11:07:41.976Z,49.10
2019-05-16T11:10:12.298Z,49.50
2019-05-16T11:12:50.283Z,49.80
2019-05-16T11:15:17.170Z,50.00
2019-05-16T11:17:46.675Z,49.30
2019-05-16T11:20:20.399Z,49.10
2019-05-16T11:22:50.987Z,49.20
2019-05-16T11:25:28.829Z,49.80
2019-05-16T11:27:53.367Z,49.90
2019-05-16T11:30:24.224Z,50.00
2019-05-16T11:32:56.710Z,50.30
2019-05-16T11:35:27.286Z,50.30
2019-05-16T11:37:58.187Z,49.60
2019-05-16T11:40:30.302Z,49.70
2019-05-16T11:43:09.297Z,50.00
2019-05-16T11:45:33.188Z,50.00
2019-05-16T11:48:03.254Z,50.00
2019-05-16T11:50:33.294Z,49.60
2019-05-16T11:53:03.442Z,49.00
2019-05-16T11:55:37.039Z,49.10
2019-05-16T11:58:06.782Z,49.50
2019-05-16T12:00:37.432Z,49.80
2019-05-16T12:03:07.714Z,49.10
2019-05-16T12:05:37.847Z,49.00
2019-05-16T12:08:08.144Z,49.30
2019-05-16T12:10:38.397Z,49.60
2019-05-16T12:13:23.761Z,49.10
2019-05-16T12:15:40.175Z,49.20
2019-05-16T12:18:10.248Z,49.50
2019-05-16T12:20:41.255Z,49.40
2019-05-16T12:23:12.459Z,49.30
2019-05-16T12:25:42.601Z,49.20
2019-05-16T12:28:12.754Z,49.30
2019-05-16T12:30:42.781Z,49.20
2019-05-16T12:33:12.940Z,49.30
2019-05-16T12:35:43.053Z,49.60
2019-05-16T12:38:13.210Z,49.90
2019-05-16T12:40:43.595Z,50.00
2019-05-16T12:43:13.625Z,50.10
2019-05-16T12:45:43.647Z,50.10
2019-05-16T12:48:17.414Z,50.00
2019-05-16T12:50:48.032Z,49.00
2019-05-16T12:53:17.755Z,49.00
2019-05-16T12:55:47.965Z,49.20
2019-05-16T12:58:25.029Z,49.40
2019-05-16T13:00:57.993Z,49.70
2019-05-16T13:03:21.861Z,49.60
2019-05-16T13:05:52.248Z,49.40
2019-05-16T13:08:22.319Z,49.20
2019-05-16T13:10:52.357Z,49.20
2019-05-16T13:13:22.395Z,49.60
2019-05-16T13:15:52.515Z,49.50
2019-05-16T13:18:22.564Z,49.40
2019-05-16T13:20:52.595Z,49.50
2019-05-16T13:23:22.730Z,49.60
2019-05-16T13:25:52.836Z,49.80
2019-05-16T13:28:22.872Z,49.80
2019-05-16T13:30:53.338Z,50.10
2019-05-16T13:33:23.489Z,50.10
2019-05-16T13:35:53.548Z,50.00
2019-05-16T13:38:23.828Z,50.10
2019-05-16T13:40:53.941Z,50.30
2019-05-16T13:43:26.773Z,50.30
2019-05-16T13:45:57.608Z,50.20
2019-05-16T13:48:27.578Z,50.30
2019-05-16T13:51:10.566Z,50.20
2019-05-16T13:53:29.578Z,50.30
2019-05-16T13:55:59.625Z,50.30
2019-05-16T13:58:30.104Z,50.40
2019-05-16T14:01:00.140Z,50.40
2019-05-16T14:03:30.884Z,50.40
2019-05-16T14:06:01.026Z,50.40
2019-05-16T14:08:31.893Z,50.50
2019-05-16T14:11:02.656Z,50.40
2019-05-16T14:13:37.640Z,50.30
2019-05-16T14:16:07.560Z,50.40
2019-05-16T14:18:38.370Z,50.80
2019-05-16T14:21:08.557Z,50.40
2019-05-16T14:23:38.572Z,50.30
2019-05-16T14:26:08.725Z,50.60
2019-05-16T14:28:39.189Z,50.60
2019-05-16T14:31:09.723Z,50.40
2019-05-16T14:33:39.926Z,50.60
2019-05-16T14:36:10.000Z,50.60
2019-05-16T14:38:40.423Z,50.50
2019-05-16T14:41:10.471Z,50.70
2019-05-16T14:43:41.175Z,50.60
2019-05-16T14:46:11.226Z,50.80
2019-05-16T14:48:41.682Z,50.60
2019-05-16T14:51:12.205Z,50.30
2019-05-16T14:53:42.422Z,50.20
2019-05-16T14:56:12.483Z,50.30
2019-05-16T14:58:42.980Z,50.40
2019-05-16T15:01:13.128Z,50.50
2019-05-16T15:03:43.334Z,50.40
2019-05-16T15:06:13.376Z,50.30
2019-05-16T15:08:43.465Z,50.40
2019-05-16T15:11:14.658Z,50.40
2019-05-16T15:13:45.331Z,50.30
2019-05-16T15:16:16.916Z,50.30
2019-05-16T15:18:47.664Z,50.70
2019-05-16T15:21:18.245Z,50.60
2019-05-16T15:23:48.631Z,50.30
2019-05-16T15:26:18.828Z,50.20
2019-05-16T15:28:51.318Z,50.10
2019-05-16T15:31:20.679Z,50.00
2019-05-16T15:33:50.722Z,50.10
2019-05-16T15:36:20.942Z,50.10
2019-05-16T15:38:51.330Z,50.30
2019-05-16T15:41:21.835Z,50.40
2019-05-16T15:43:53.648Z,50.60
2019-05-16T15:46:26.525Z,50.70
2019-05-16T15:48:56.974Z,50.60
2019-05-16T15:51:28.914Z,50.70
2019-05-16T15:54:00.043Z,50.70
2019-05-16T15:56:30.688Z,50.70
2019-05-16T15:59:00.812Z,50.50
2019-05-16T16:01:31.339Z,50.50
2019-05-16T16:04:01.786Z,50.60
2019-05-16T16:06:32.092Z,50.70
2019-05-16T16:09:02.214Z,50.90
2019-05-16T16:11:34.005Z,51.10
2019-05-16T16:14:06.972Z,51.30
2019-05-16T16:16:37.902Z,51.20
2019-05-16T16:19:08.344Z,51.10
2019-05-16T16:21:40.416Z,51.20
2019-05-16T16:24:10.770Z,51.20
2019-05-16T16:26:41.468Z,51.10
2019-05-16T16:29:11.737Z,51.30
2019-05-16T16:31:42.645Z,51.30
2019-05-16T16:34:13.057Z,51.30
2019-05-16T16:36:43.464Z,51.60
2019-05-16T16:39:13.770Z,51.00
2019-05-16T16:41:44.010Z,51.20
2019-05-16T16:44:14.128Z,51.10
2019-05-16T16:46:46.651Z,51.10
2019-05-16T16:49:17.336Z,51.20
2019-05-16T16:51:48.212Z,51.30
2019-05-16T16:54:18.828Z,51.10
2019-05-16T16:56:49.019Z,51.00
2019-05-16T16:59:19.252Z,50.90
2019-05-16T17:01:49.375Z,51.10
2019-05-16T17:04:19.684Z,51.20
2019-05-16T17:06:49.980Z,51.10
2019-05-16T17:09:20.474Z,51.20
2019-05-16T17:11:50.940Z,51.20
2019-05-16T17:14:21.243Z,51.00
2019-05-16T17:16:51.507Z,51.00
2019-05-16T17:19:21.722Z,50.90
2019-05-16T17:22:06.105Z,50.80
2019-05-16T17:24:27.383Z,50.70
2019-05-16T17:26:57.953Z,51.10
2019-05-16T17:29:28.621Z,51.00
2019-05-16T17:32:05.875Z,51.10
2019-05-16T17:34:32.053Z,51.10
2019-05-16T17:37:02.273Z,51.20
2019-05-16T17:39:32.516Z,51.40
2019-05-16T17:42:02.761Z,51.30
2019-05-16T17:44:33.178Z,51.20
2019-05-16T17:47:03.472Z,51.30
2019-05-16T17:49:33.691Z,51.20
2019-05-16T17:52:04.212Z,51.40
2019-05-16T17:54:34.438Z,51.40
2019-05-16T17:57:04.739Z,51.60
2019-05-16T17:59:37.747Z,51.30
2019-05-16T18:02:07.102Z,51.40
2019-05-16T18:04:40.864Z,51.60
2019-05-16T18:07:09.600Z,51.40
2019-05-16T18:09:42.916Z,51.40
2019-05-16T18:12:11.845Z,51.50
2019-05-16T18:14:42.235Z,51.60
2019-05-16T18:17:12.445Z,51.40
2019-05-16T18:19:42.579Z,51.30
2019-05-16T18:22:13.148Z,51.50
2019-05-16T18:24:43.358Z,51.40
2019-05-16T18:27:13.446Z,51.30
2019-05-16T18:29:43.504Z,51.20
2019-05-16T18:32:13.694Z,51.30
2019-05-16T18:34:43.884Z,51.20
2019-05-16T18:37:14.102Z,51.20
2019-05-16T18:39:44.258Z,51.30
2019-05-16T18:42:16.616Z,51.40
2019-05-16T18:44:47.168Z,51.40
2019-05-16T18:47:17.514Z,51.50
2019-05-16T18:49:47.763Z,51.50
2019-05-16T18:52:17.956Z,51.40
2019-05-16T18:54:48.541Z,51.40
2019-05-16T18:57:18.653Z,51.50
2019-05-16T18:59:49.076Z,51.40
2019-05-16T19:02:19.235Z,51.50
2019-05-16T19:04:49.820Z,51.50
2019-05-16T19:07:20.450Z,51.50
2019-05-16T19:09:50.576Z,51.40
2019-05-16T19:12:20.676Z,51.50
2019-05-16T19:14:50.804Z,51.70
2019-05-16T19:17:24.607Z,51.70
2019-05-16T19:22:17.052Z,51.90
2019-05-16T19:24:47.181Z,51.70
2019-05-16T19:27:17.415Z,51.70
2019-05-16T19:29:47.704Z,51.80
2019-05-16T19:32:18.176Z,51.90
2019-05-16T19:34:49.265Z,52.00
2019-05-16T19:37:20.504Z,52.10
2019-05-16T19:39:50.611Z,52.40
2019-05-16T19:42:22.514Z,52.30
2019-05-16T19:44:53.214Z,52.30
2019-05-16T19:47:34.100Z,52.50
2019-05-16T19:49:56.989Z,52.50
2019-05-16T19:52:27.345Z,52.70
2019-05-16T19:54:57.586Z,52.60
2019-05-16T19:57:27.796Z,52.80
2019-05-16T19:59:58.045Z,52.70
2019-05-16T20:02:28.133Z,52.80
2019-05-16T20:04:58.407Z,52.80
2019-05-16T20:07:28.969Z,52.90
2019-05-16T20:09:59.075Z,53.00
2019-05-16T20:12:30.007Z,53.10
2019-05-16T20:15:08.102Z,53.10
2019-05-16T20:17:32.603Z,53.10
2019-05-16T20:20:03.450Z,53.50
2019-05-16T20:22:33.703Z,53.30
2019-05-16T20:25:03.884Z,53.80
2019-05-16T20:27:34.043Z,52.90
2019-05-16T20:30:06.684Z,53.30
2019-05-16T20:32:37.353Z,53.00
2019-05-16T20:35:08.895Z,52.70
2019-05-16T20:37:39.661Z,52.50
2019-05-16T20:40:12.430Z,52.60
2019-05-16T20:42:42.049Z,52.60
2019-05-16T20:45:12.563Z,52.50
2019-05-16T20:47:42.695Z,52.70
2019-05-16T20:50:13.411Z,52.90
2019-05-16T20:52:43.631Z,52.90
2019-05-16T20:55:17.396Z,53.00
2019-05-16T20:57:48.506Z,53.10
2019-05-16T21:00:19.865Z,53.20
2019-05-16T21:02:50.049Z,53.20
2019-05-16T21:05:20.220Z,53.30
2019-05-16T21:07:50.309Z,53.40
2019-05-16T21:10:20.559Z,53.30
2019-05-16T21:12:51.061Z,53.20
2019-05-16T21:15:21.164Z,53.10
2019-05-16T21:17:51.333Z,53.10
2019-05-16T21:20:21.335Z,53.20
2019-05-16T21:22:51.393Z,53.20
2019-05-16T21:25:21.480Z,53.30
2019-05-16T21:27:51.569Z,53.30
2019-05-16T21:30:21.897Z,53.30
2019-05-16T21:32:52.057Z,53.50
2019-05-16T21:35:22.615Z,53.40
2019-05-16T21:37:52.789Z,53.40
2019-05-16T21:40:23.168Z,53.40
2019-05-16T21:42:53.225Z,53.50
2019-05-16T21:45:23.389Z,53.60
2019-05-16T21:47:53.615Z,53.60
2019-05-16T21:50:24.609Z,53.60
2019-05-16T21:52:56.489Z,53.60
2019-05-16T21:55:29.717Z,53.80
2019-05-16T21:57:58.356Z,53.90
2019-05-16T22:00:37.553Z,53.80
2019-05-16T22:03:09.112Z,53.60
2019-05-16T22:05:39.229Z,53.40
2019-05-16T22:08:11.784Z,53.40
2019-05-16T22:10:41.136Z,53.40
2019-05-16T22:13:12.919Z,53.60
2019-05-16T22:15:43.183Z,53.40
2019-05-16T22:18:13.542Z,53.50
2019-05-16T22:20:43.970Z,53.80
2019-05-16T22:23:14.147Z,53.60
2019-05-16T22:25:44.255Z,53.50
2019-05-16T22:28:17.080Z,53.60
2019-05-16T22:30:46.601Z,53.70
2019-05-16T22:33:17.877Z,53.70
2019-05-16T22:35:49.548Z,53.80
2019-05-16T22:38:20.085Z,53.80
2019-05-16T22:40:50.225Z,53.80
2019-05-16T22:43:20.392Z,53.80
2019-05-16T22:45:50.553Z,53.60
2019-05-16T22:48:20.709Z,53.80
2019-05-16T22:50:50.845Z,53.70
2019-05-16T22:53:21.219Z,53.70
2019-05-16T22:55:51.335Z,53.70
2019-05-16T22:58:21.553Z,53.70
2019-05-16T23:00:51.688Z,53.60
2019-05-16T23:03:22.173Z,53.50
2019-05-16T23:05:52.523Z,53.50
2019-05-16T23:08:22.683Z,53.50
2019-05-16T23:10:53.037Z,53.50
2019-05-16T23:13:23.291Z,53.70
2019-05-16T23:15:53.585Z,53.60
2019-05-16T23:18:23.752Z,53.60
2019-05-16T23:20:54.176Z,53.60
2019-05-16T23:23:26.430Z,53.50
2019-05-16T23:25:56.920Z,53.60
2019-05-16T23:28:28.249Z,53.50
2019-05-16T23:30:58.347Z,53.50
2019-05-16T23:33:28.783Z,53.40
2019-05-16T23:35:58.859Z,53.70
2019-05-16T23:38:29.015Z,53.70
2019-05-16T23:40:59.142Z,53.70
2019-05-16T23:43:29.391Z,53.60
2019-05-16T23:45:59.496Z,53.60
2019-05-16T23:48:29.656Z,53.70
2019-05-16T23:51:00.048Z,53.80
2019-05-16T23:53:30.384Z,53.80
2019-05-16T23:56:00.774Z,53.70
2019-05-16T23:58:30.967Z,53.90
